Time;durP1;ratioP1;P1;durP2;ratioP2;P2;SDS_P1;SDS_P2;PMS_P1;PMS_P2;Temp;Humidity;BMP_temperature;BMP_pressure;BME280_temperature;BME280_humidity;BME280_pressure;Samples;Min_cycle;Max_cycle;Signal;HPM_P1;HPM_P2
2023/03/02 00:01:03;;;;;;;15.50;8.82;;;;;;;3.29;54.02;100598.44;5155396;27;20023;-78
2023/03/02 00:03:31;;;;;;;12.73;5.95;;;;;;;3.33;53.94;100598.88;5155436;27;20141;-77
2023/03/02 00:05:57;;;;;;;15.20;7.32;;;;;;;3.27;53.42;100608.56;5155038;27;20035;-77
2023/03/02 00:08:22;;;;;;;18.58;8.45;;;;;;;3.30;53.44;100599.25;5154019;27;20038;-77
2023/03/02 00:10:48;;;;;;;14.25;6.55;;;;;;;3.32;53.87;100602.56;5157179;27;20030;-77
2023/03/02 00:13:14;;;;;;;13.32;7.22;;;;;;;3.35;53.54;100594.94;5154999;27;20135;-77
2023/03/02 00:15:39;;;;;;;11.23;5.93;;;;;;;3.32;54.50;100600.72;5155913;27;20050;-77
2023/03/02 00:18:05;;;;;;;12.57;7.32;;;;;;;3.32;53.89;100597.19;5153704;27;20029;-77
2023/03/02 00:20:30;;;;;;;10.52;6.47;;;;;;;3.28;53.78;100596.75;5155757;27;20027;-77
2023/03/02 00:22:56;;;;;;;12.90;6.60;;;;;;;3.29;53.85;100601.13;5155750;27;20463;-76
2023/03/02 00:25:21;;;;;;;13.60;7.60;;;;;;;3.35;53.80;100592.25;5154167;27;20038;-76
2023/03/02 00:27:46;;;;;;;11.87;6.70;;;;;;;3.38;53.90;100593.72;5154912;27;20950;-76
2023/03/02 00:30:13;;;;;;;16.55;7.15;;;;;;;3.37;53.55;100590.19;5153338;27;20266;-77
2023/03/02 00:32:38;;;;;;;10.43;6.00;;;;;;;3.44;53.30;100589.41;5154358;27;20019;-77
2023/03/02 00:35:04;;;;;;;16.08;5.85;;;;;;;3.22;54.07;100592.13;5154315;27;20031;-77
2023/03/02 00:37:30;;;;;;;15.90;7.65;;;;;;;3.23;54.25;100591.13;5150322;27;20525;-78
2023/03/02 00:39:55;;;;;;;13.70;7.27;;;;;;;3.24;54.15;100584.69;5154514;27;20019;-77
2023/03/02 00:42:21;;;;;;;13.67;7.30;;;;;;;3.20;54.20;100586.09;5153697;27;20631;-76
2023/03/02 00:44:46;;;;;;;14.75;7.78;;;;;;;3.24;53.73;100582.00;5154194;27;20294;-77
2023/03/02 00:47:12;;;;;;;15.43;7.38;;;;;;;3.23;54.13;100577.66;5153034;27;20038;-77
2023/03/02 00:49:37;;;;;;;13.27;6.38;;;;;;;3.22;54.07;100581.34;5150604;27;20083;-78
2023/03/02 00:52:03;;;;;;;17.15;7.07;;;;;;;3.12;53.81;100570.91;5153017;27;20026;-77
2023/03/02 00:54:29;;;;;;;11.10;6.13;;;;;;;3.13;54.33;100583.38;5151821;27;20038;-77
2023/03/02 00:56:54;;;;;;;16.07;7.00;;;;;;;3.07;54.37;100581.47;5151570;27;20043;-77
2023/03/02 00:59:25;;;;;;;10.82;6.45;;;;;;;3.01;54.73;100572.31;5151899;27;20766;-77
2023/03/02 01:01:58;;;;;;;12.20;7.30;;;;;;;3.01;54.78;100575.00;5154018;27;20031;-77
2023/03/02 01:04:29;;;;;;;14.48;7.43;;;;;;;2.89;54.79;100578.19;5154240;27;20098;-77
2023/03/02 01:07:00;;;;;;;13.20;8.30;;;;;;;2.85;54.93;100570.72;5154349;27;20042;-77
2023/03/02 01:09:27;;;;;;;15.52;8.10;;;;;;;2.80;55.50;100576.66;5143006;27;20083;-77
2023/03/02 01:11:53;;;;;;;13.35;7.50;;;;;;;2.79;55.26;100577.69;5141604;27;20042;-77
2023/03/02 01:14:18;;;;;;;13.68;7.45;;;;;;;2.82;55.30;100577.31;5140903;27;20035;-78
2023/03/02 01:16:46;;;;;;;17.25;9.07;;;;;;;2.74;55.47;100574.75;5140673;27;20116;-77
2023/03/02 01:19:12;;;;;;;12.60;6.90;;;;;;;2.76;55.37;100570.00;5138812;27;20037;-77
2023/03/02 01:21:37;;;;;;;16.02;8.18;;;;;;;2.76;55.66;100567.31;5139407;27;20102;-77
2023/03/02 01:24:02;;;;;;;15.87;8.50;;;;;;;2.73;55.75;100568.53;5140991;27;20019;-77
2023/03/02 01:26:28;;;;;;;15.25;7.00;;;;;;;2.72;55.76;100571.41;5140089;27;20260;-77
2023/03/02 01:28:54;;;;;;;20.70;8.67;;;;;;;2.74;55.81;100562.13;5140001;27;20023;-77
2023/03/02 01:31:23;;;;;;;27.05;8.25;;;;;;;2.85;55.79;100566.13;5139957;27;20267;-78
2023/03/02 01:33:49;;;;;;;14.63;7.50;;;;;;;2.87;55.78;100564.09;5139591;27;20098;-77
2023/03/02 01:36:14;;;;;;;16.92;7.95;;;;;;;2.86;55.18;100562.44;5139566;27;20061;-77
2023/03/02 01:38:40;;;;;;;13.52;7.00;;;;;;;2.89;55.56;100571.97;5137957;27;20018;-76
2023/03/02 01:41:05;;;;;;;11.80;7.20;;;;;;;2.75;55.86;100563.78;5139818;27;20019;-77
2023/03/02 01:43:31;;;;;;;14.50;7.38;;;;;;;2.77;55.61;100558.19;5140034;27;20243;-78
2023/03/02 01:46:02;;;;;;;14.60;7.32;;;;;;;2.77;55.81;100563.56;5139209;27;20035;-78
2023/03/02 01:48:37;;;;;;;12.30;7.50;;;;;;;2.78;55.99;100554.47;5140136;27;20041;-78
2023/03/02 01:51:05;;;;;;;14.27;6.88;;;;;;;2.77;55.47;100566.25;5140028;27;20068;-78
2023/03/02 01:53:32;;;;;;;15.18;7.63;;;;;;;2.76;55.67;100556.53;5140221;27;20035;-78
2023/03/02 01:56:01;;;;;;;16.95;8.60;;;;;;;2.72;55.56;100560.63;5139154;27;20034;-78
2023/03/02 01:58:30;;;;;;;18.60;9.55;;;;;;;2.73;56.03;100551.53;5139560;27;20031;-78
2023/03/02 02:00:56;;;;;;;18.67;8.20;;;;;;;2.80;55.65;100549.75;5138378;27;20035;-78
2023/03/02 02:03:25;;;;;;;15.85;7.80;;;;;;;2.78;55.61;100543.72;5140565;27;20025;-78
2023/03/02 02:06:00;;;;;;;14.32;7.78;;;;;;;2.79;55.64;100550.75;5140133;27;20098;-78
2023/03/02 02:08:27;;;;;;;18.50;8.07;;;;;;;2.66;55.91;100546.94;5139150;27;20091;-78
2023/03/02 02:10:53;;;;;;;16.48;8.13;;;;;;;2.62;55.38;100540.25;5140849;27;20402;-78
2023/03/02 02:13:18;;;;;;;14.13;7.55;;;;;;;2.62;55.64;100540.25;5141007;27;20019;-78
2023/03/02 02:15:44;;;;;;;15.23;6.95;;;;;;;2.34;56.09;100532.91;5138687;27;20045;-78
2023/03/02 02:18:09;;;;;;;14.23;7.53;;;;;;;2.39;55.87;100538.59;5138875;27;20047;-77
2023/03/02 02:20:38;;;;;;;15.13;6.13;;;;;;;2.55;55.72;100534.81;5138980;27;20079;-77
2023/03/02 02:23:27;;;;;;;11.20;5.88;;;;;;;2.35;56.05;100531.91;5140359;27;20138;-77
2023/03/02 02:25:54;;;;;;;12.85;7.15;;;;;;;2.27;55.82;100542.78;5140464;27;20057;-77
2023/03/02 02:28:32;;;;;;;12.05;6.30;;;;;;;2.48;55.86;100535.78;5139553;27;20047;-77
2023/03/02 02:31:06;;;;;;;12.82;5.70;;;;;;;2.57;55.41;100531.91;5139651;27;20035;-77
2023/03/02 02:33:32;;;;;;;12.95;7.22;;;;;;;2.58;54.93;100538.97;5139703;27;20116;-77
2023/03/02 02:36:05;;;;;;;17.58;7.35;;;;;;;2.58;55.05;100538.97;5139948;27;20066;-77
2023/03/02 02:38:32;;;;;;;17.97;7.57;;;;;;;2.63;54.67;100527.63;5139823;27;20039;-77
2023/03/02 02:41:02;;;;;;;16.40;7.90;;;;;;;2.55;55.45;100520.50;5140036;27;20392;-78
2023/03/02 02:43:29;;;;;;;11.23;6.70;;;;;;;2.16;56.57;100523.44;5138889;27;20230;-77
2023/03/02 02:45:56;;;;;;;17.70;7.00;;;;;;;2.37;55.98;100516.41;5139956;27;20049;-77
2023/03/02 02:48:24;;;;;;;13.77;6.03;;;;;;;2.51;55.52;100511.16;5139060;27;20042;-77
2023/03/02 02:50:58;;;;;;;9.93;5.63;;;;;;;2.48;55.22;100516.94;5139602;27;20513;-78
2023/03/02 02:53:47;;;;;;;12.98;6.75;;;;;;;2.50;55.36;100509.50;5139860;27;20118;-78
2023/03/02 02:56:13;;;;;;;11.27;6.18;;;;;;;2.41;55.73;100509.63;5139933;27;20172;-77
2023/03/02 02:58:47;;;;;;;13.13;7.47;;;;;;;2.47;55.29;100509.84;5139512;27;20200;-78
2023/03/02 03:01:14;;;;;;;;;;;;;;;2.43;55.30;100515.63;5140295;27;20035;-77
2023/03/02 03:03:45;;;;;;;13.68;6.30;;;;;;;2.45;55.17;100524.34;5139478;27;19919;-77
2023/03/02 03:06:16;;;;;;;11.52;6.50;;;;;;;2.42;55.31;100519.34;5139569;27;20031;-77
2023/03/02 03:08:44;;;;;;;10.20;5.80;;;;;;;2.40;55.42;100516.00;5139241;27;20503;-77
2023/03/02 03:11:18;;;;;;;14.07;7.82;;;;;;;2.52;55.21;100518.22;5138574;27;20035;-77
2023/03/02 03:13:45;;;;;;;17.13;6.72;;;;;;;2.48;55.00;100508.84;5139359;27;20511;-78
2023/03/02 03:16:14;;;;;;;13.00;6.40;;;;;;;2.45;55.61;100505.50;5137799;27;20117;-77
2023/03/02 03:18:45;;;;;;;15.15;6.38;;;;;;;2.52;55.11;100512.81;5138103;27;20042;-77
2023/03/02 03:21:11;;;;;;;15.10;6.55;;;;;;;2.44;55.67;100511.91;5138735;27;20034;-77
2023/03/02 03:23:37;;;;;;;11.80;6.70;;;;;;;2.45;55.02;100505.50;5138328;27;20031;-78
2023/03/02 03:26:03;;;;;;;14.48;7.57;;;;;;;2.48;55.11;100508.84;5139280;27;20122;-76
2023/03/02 03:28:29;;;;;;;13.57;6.45;;;;;;;2.54;55.36;100505.38;5139483;27;20499;-77
2023/03/02 03:30:55;;;;;;;14.50;7.03;;;;;;;2.58;55.31;100501.28;5139507;27;20126;-77
2023/03/02 03:33:20;;;;;;;13.18;6.90;;;;;;;2.57;55.15;100502.28;5137642;27;20037;-78
2023/03/02 03:35:45;;;;;;;11.65;7.68;;;;;;;2.52;55.28;100500.16;5139291;27;20426;-78
2023/03/02 03:38:11;;;;;;;14.93;7.87;;;;;;;2.51;55.66;100497.69;5138597;27;20106;-77
2023/03/02 03:40:36;;;;;;;18.88;10.18;;;;;;;2.45;55.69;100500.13;5137804;27;20258;-78
2023/03/02 03:43:02;;;;;;;17.80;10.23;;;;;;;2.47;55.73;100499.09;5139332;27;20027;-77
2023/03/02 03:45:28;;;;;;;20.00;9.68;;;;;;;2.49;55.94;100507.81;5138492;27;20748;-77
2023/03/02 03:47:53;;;;;;;21.58;10.30;;;;;;;2.48;55.67;100507.00;5137827;27;20042;-77
2023/03/02 03:50:19;;;;;;;16.77;9.40;;;;;;;2.42;55.78;100508.56;5139401;27;20533;-77
2023/03/02 03:52:44;;;;;;;16.60;8.20;;;;;;;2.40;56.32;100510.63;5138494;27;20516;-77
2023/03/02 03:55:11;;;;;;;16.77;8.73;;;;;;;2.44;55.65;100514.59;5139237;27;20027;-77
2023/03/02 03:57:37;;;;;;;14.27;7.15;;;;;;;2.42;55.55;100513.97;5138114;27;20295;-78
2023/03/02 04:00:06;;;;;;;17.05;7.43;;;;;;;2.41;55.52;100512.31;5139518;27;20031;-78
2023/03/02 04:02:32;;;;;;;14.48;6.53;;;;;;;2.36;55.87;100511.22;5137309;27;20114;-77
2023/03/02 04:05:05;;;;;;;14.68;7.43;;;;;;;2.36;55.99;100509.34;5138760;27;20030;-77
2023/03/02 04:07:30;;;;;;;11.88;6.70;;;;;;;2.37;56.00;100511.03;5138546;27;20479;-76
2023/03/02 04:10:02;;;;;;;16.20;8.88;;;;;;;2.39;55.93;100506.28;5138686;27;20023;-77
2023/03/02 04:12:29;;;;;;;20.65;9.07;;;;;;;2.38;55.69;100506.47;5138673;27;20122;-77
2023/03/02 04:14:54;;;;;;;15.35;8.68;;;;;;;2.39;56.06;100500.91;5138185;27;20364;-77
2023/03/02 04:17:20;;;;;;;13.30;6.90;;;;;;;2.37;55.56;100515.56;5137481;27;20051;-78
2023/03/02 04:19:45;;;;;;;13.67;7.37;;;;;;;2.38;56.22;100517.25;5138082;27;20100;-78
2023/03/02 04:22:10;;;;;;;18.02;9.93;;;;;;;2.32;55.97;100519.66;5137908;27;20632;-78
2023/03/02 04:24:35;;;;;;;14.93;7.40;;;;;;;2.26;55.96;100515.03;5139049;27;20071;-77
2023/03/02 04:27:01;;;;;;;18.38;9.07;;;;;;;2.24;55.78;100510.91;5138854;27;20260;-78
2023/03/02 04:29:26;;;;;;;18.80;9.30;;;;;;;2.21;56.18;100512.09;5138403;27;20030;-78
2023/03/02 04:31:51;;;;;;;21.20;10.35;;;;;;;2.27;56.32;100513.19;5137526;27;20034;-78
2023/03/02 04:34:17;;;;;;;20.03;9.57;;;;;;;2.16;56.00;100515.34;5138088;27;20043;-78
2023/03/02 04:36:42;;;;;;;14.43;7.97;;;;;;;2.24;56.27;100509.00;5138027;27;20275;-78
2023/03/02 04:39:09;;;;;;;18.48;8.38;;;;;;;2.30;56.27;100510.09;5139487;27;20752;-77
2023/03/02 04:41:35;;;;;;;18.10;9.15;;;;;;;2.32;56.66;100508.06;5137240;27;20026;-78
2023/03/02 04:44:01;;;;;;;13.82;7.75;;;;;;;2.34;55.78;100519.47;5140200;27;20380;-77
2023/03/02 04:46:26;;;;;;;12.48;7.22;;;;;;;2.32;55.65;100513.44;5141797;27;20051;-78
2023/03/02 04:48:52;;;;;;;14.02;7.25;;;;;;;2.22;55.91;100513.75;5141967;27;20042;-77
2023/03/02 04:51:22;;;;;;;13.88;7.78;;;;;;;2.23;56.00;100518.13;5141852;27;20066;-78
2023/03/02 04:53:49;;;;;;;13.88;6.68;;;;;;;2.21;55.87;100512.94;5141690;27;20035;-77
2023/03/02 04:56:14;;;;;;;14.07;6.95;;;;;;;2.06;55.96;100520.19;5141064;27;20034;-78
2023/03/02 04:58:40;;;;;;;14.93;6.32;;;;;;;2.15;56.09;100512.84;5141702;27;20059;-78
2023/03/02 05:01:06;;;;;;;13.27;6.83;;;;;;;2.23;55.80;100512.75;5141888;27;20424;-78
2023/03/02 05:03:31;;;;;;;13.00;6.35;;;;;;;2.13;55.94;100507.69;5141700;27;20636;-77
2023/03/02 05:05:56;;;;;;;16.00;6.85;;;;;;;2.00;56.11;100510.19;5140379;27;20027;-78
2023/03/02 05:08:23;;;;;;;14.57;5.77;;;;;;;2.07;56.03;100508.44;5140577;27;20043;-78
2023/03/02 05:10:48;;;;;;;14.05;5.85;;;;;;;2.13;55.68;100509.53;5141172;27;20294;-77
2023/03/02 05:13:13;;;;;;;13.27;7.53;;;;;;;2.11;55.62;100512.41;5141472;27;20077;-77
2023/03/02 05:15:40;;;;;;;12.73;6.50;;;;;;;2.10;55.99;100510.72;5141201;27;20393;-77
2023/03/02 05:18:07;;;;;;;11.65;6.72;;;;;;;2.08;55.58;100508.22;5140913;27;20400;-77
2023/03/02 05:20:33;;;;;;;11.32;5.93;;;;;;;2.10;55.70;100516.13;5140453;27;20054;-76
2023/03/02 05:23:01;;;;;;;15.48;7.28;;;;;;;2.07;55.59;100513.81;5141928;27;20038;-77
2023/03/02 05:25:29;;;;;;;9.85;6.75;;;;;;;1.96;56.63;100507.91;5140735;27;20154;-77
2023/03/02 05:27:54;;;;;;;10.82;6.20;;;;;;;2.03;56.31;100509.84;5140243;27;20027;-77
2023/03/02 05:30:20;;;;;;;17.25;9.65;;;;;;;2.07;55.97;100503.91;5141118;27;20627;-77
2023/03/02 05:32:46;;;;;;;11.48;7.20;;;;;;;2.11;56.03;100507.03;5141357;27;20520;-77
2023/03/02 05:35:12;;;;;;;10.48;6.60;;;;;;;1.97;56.36;100501.47;5141444;27;20030;-77
2023/03/02 05:37:41;;;;;;;13.68;5.95;;;;;;;2.08;55.64;100504.69;5140000;27;20483;-77
2023/03/02 05:40:08;;;;;;;9.05;5.05;;;;;;;2.05;56.05;100507.78;5141350;27;20479;-77
2023/03/02 05:42:34;;;;;;;13.02;5.93;;;;;;;2.03;55.41;100507.16;5141324;27;20125;-77
2023/03/02 05:45:00;;;;;;;14.35;7.45;;;;;;;1.97;55.65;100506.06;5140925;27;20084;-78
2023/03/02 05:47:25;;;;;;;15.85;7.38;;;;;;;2.00;56.14;100502.13;5140443;27;20023;-77
2023/03/02 05:49:50;;;;;;;15.07;6.70;;;;;;;2.03;55.90;100499.91;5141201;27;20035;-78
2023/03/02 05:52:16;;;;;;;13.97;7.03;;;;;;;2.07;55.46;100511.13;5141337;27;20255;-77
2023/03/02 05:54:41;;;;;;;28.17;7.27;;;;;;;2.05;55.70;100505.94;5140710;27;20274;-77
2023/03/02 05:57:06;;;;;;;11.90;5.70;;;;;;;2.03;55.76;100501.75;5140395;27;20778;-78
2023/03/02 05:59:32;;;;;;;11.73;4.93;;;;;;;2.09;55.61;100503.69;5140582;27;20398;-77
2023/03/02 06:01:58;;;;;;;14.68;7.32;;;;;;;2.04;55.86;100500.72;5140572;27;20248;-78
2023/03/02 06:04:24;;;;;;;12.63;7.18;;;;;;;2.01;55.55;100501.13;5139995;27;20035;-77
2023/03/02 06:06:50;;;;;;;11.02;6.40;;;;;;;1.97;56.12;100500.66;5139864;27;20035;-77
2023/03/02 06:09:15;;;;;;;11.77;6.60;;;;;;;1.98;56.08;100505.84;5140327;27;20091;-77
2023/03/02 06:11:40;;;;;;;15.68;5.95;;;;;;;1.98;55.58;100496.94;5141042;27;20026;-77
2023/03/02 06:14:06;;;;;;;12.00;7.32;;;;;;;1.90;56.09;100507.81;5140792;27;20057;-77
2023/03/02 06:16:32;;;;;;;18.17;7.07;;;;;;;1.97;55.97;100501.47;5140104;27;20023;-77
2023/03/02 06:18:58;;;;;;;16.40;8.65;;;;;;;2.01;55.85;100503.81;5139385;27;20311;-77
2023/03/02 06:21:23;;;;;;;12.60;5.90;;;;;;;1.97;55.64;100506.88;5140695;27;20034;-77
2023/03/02 06:23:48;;;;;;;22.00;7.45;;;;;;;2.04;55.85;100506.09;5140439;27;20126;-77
2023/03/02 06:26:13;;;;;;;15.48;8.25;;;;;;;1.96;56.51;100507.91;5140547;27;20031;-77
2023/03/02 06:28:39;;;;;;;12.40;5.97;;;;;;;2.00;55.85;100510.19;5140234;27;20034;-77
2023/03/02 06:31:04;;;;;;;16.73;8.52;;;;;;;2.01;56.21;100509.19;5140643;27;20492;-77
2023/03/02 06:33:30;;;;;;;17.65;8.05;;;;;;;1.93;56.09;100519.03;5140602;27;20483;-77
2023/03/02 06:35:55;;;;;;;17.75;11.02;;;;;;;1.94;56.12;100509.94;5140478;27;20064;-77
2023/03/02 06:38:21;;;;;;;20.92;10.43;;;;;;;1.96;56.65;100518.66;5139751;27;20039;-77
2023/03/02 06:40:46;;;;;;;23.67;11.05;;;;;;;2.03;56.24;100520.59;5140435;27;20027;-78
2023/03/02 06:43:12;;;;;;;18.75;9.95;;;;;;;2.06;56.58;100522.91;5139267;27;20038;-77
2023/03/02 06:45:38;;;;;;;25.00;10.23;;;;;;;2.13;56.33;100521.13;5140483;27;20031;-77
2023/03/02 06:48:04;;;;;;;16.17;7.15;;;;;;;2.07;56.32;100520.03;5139702;27;20113;-78
2023/03/02 06:50:29;;;;;;;17.27;8.05;;;;;;;2.05;56.35;100514.00;5139065;27;20034;-77
2023/03/02 06:52:54;;;;;;;16.60;8.35;;;;;;;2.11;55.97;100520.47;5139997;27;20423;-78
2023/03/02 06:55:20;;;;;;;14.23;7.65;;;;;;;2.16;56.08;100526.13;5139179;27;20334;-78
2023/03/02 06:57:45;;;;;;;15.10;6.53;;;;;;;1.93;56.93;100526.28;5139579;27;20166;-77
2023/03/02 07:00:23;;;;;;;14.27;7.18;;;;;;;2.07;56.59;100527.25;5139707;27;20276;-78
2023/03/02 07:02:48;;;;;;;13.25;7.13;;;;;;;1.93;56.53;100527.09;5138945;27;20034;-76
2023/03/02 07:05:14;;;;;;;16.40;7.10;;;;;;;2.14;56.27;100536.22;5139259;27;20027;-77
2023/03/02 07:07:39;;;;;;;31.67;7.65;;;;;;;1.83;56.67;100537.34;5138642;27;20106;-77
2023/03/02 07:10:06;;;;;;;17.38;7.88;;;;;;;1.95;56.54;100530.44;5139202;27;20056;-78
2023/03/02 07:12:31;;;;;;;14.23;6.75;;;;;;;2.10;56.77;100526.88;5139516;27;20487;-77
2023/03/02 07:14:57;;;;;;;13.93;7.03;;;;;;;2.16;56.56;100526.13;5138901;27;20042;-77
2023/03/02 07:17:22;;;;;;;15.23;7.35;;;;;;;2.12;56.53;100530.22;5138672;27;20059;-78
2023/03/02 07:19:47;;;;;;;15.82;8.10;;;;;;;2.19;56.39;100532.97;5138762;27;20031;-78
2023/03/02 07:22:12;;;;;;;17.90;8.18;;;;;;;2.09;56.14;100530.59;5137644;27;20509;-77
2023/03/02 07:24:38;;;;;;;15.48;7.30;;;;;;;2.20;56.12;100522.03;5139047;27;20031;-77
2023/03/02 07:27:03;;;;;;;13.88;7.20;;;;;;;2.11;56.13;100533.94;5139275;27;20495;-77
2023/03/02 07:29:28;;;;;;;12.65;6.60;;;;;;;2.08;56.77;100535.16;5133972;27;20034;-77
2023/03/02 07:31:59;;;;;;;12.30;6.95;;;;;;;2.24;56.01;100527.03;5136176;27;20079;-77
2023/03/02 07:34:26;;;;;;;12.80;8.23;;;;;;;2.35;55.70;100531.06;5134737;27;20102;-78
2023/03/02 07:36:51;;;;;;;14.45;7.55;;;;;;;2.36;56.11;100535.44;5132196;27;20030;-79
2023/03/02 07:39:17;;;;;;;20.23;9.18;;;;;;;2.44;55.61;100541.53;5136478;27;20027;-77
2023/03/02 07:41:43;;;;;;;16.77;6.80;;;;;;;2.29;55.89;100535.38;5138822;27;20019;-78
2023/03/02 07:44:08;;;;;;;16.90;5.80;;;;;;;2.36;55.67;100535.44;5139694;27;20045;-80
2023/03/02 07:46:34;;;;;;;17.33;8.05;;;;;;;2.43;55.67;100537.19;5137837;27;20379;-77
2023/03/02 07:48:59;;;;;;;15.80;8.00;;;;;;;2.44;55.95;100538.81;5138404;27;20034;-76
2023/03/02 07:51:25;;;;;;;14.43;8.30;;;;;;;2.50;55.34;100542.59;5139105;27;20055;-78
2023/03/02 07:53:50;;;;;;;13.82;5.65;;;;;;;2.32;55.38;100541.19;5137298;27;20080;-77
2023/03/02 07:56:15;;;;;;;17.50;7.10;;;;;;;2.37;55.76;100537.94;5136201;27;20384;-78
2023/03/02 07:58:41;;;;;;;13.52;6.43;;;;;;;2.50;55.68;100541.78;5138195;27;20030;-77
2023/03/02 08:01:06;;;;;;;17.33;7.68;;;;;;;2.57;55.39;100540.00;5137900;27;20453;-77
2023/03/02 08:03:32;;;;;;;14.40;6.25;;;;;;;2.73;55.26;100543.44;5138013;27;20653;-77
2023/03/02 08:05:57;;;;;;;12.95;7.95;;;;;;;2.61;55.48;100538.59;5135635;27;20105;-78
2023/03/02 08:08:22;;;;;;;15.27;7.68;;;;;;;2.63;54.86;100541.91;5135724;27;20035;-77
2023/03/02 08:10:47;;;;;;;12.93;6.47;;;;;;;2.74;54.84;100537.03;5137443;27;20143;-77
2023/03/02 08:13:13;;;;;;;12.63;6.57;;;;;;;2.47;54.13;100547.53;5136760;27;20569;-77
2023/03/02 08:15:38;;;;;;;12.73;7.30;;;;;;;2.53;53.70;100541.41;5135820;27;20072;-77
2023/03/02 08:18:03;;;;;;;16.25;6.97;;;;;;;2.46;54.22;100546.75;5136425;27;20031;-77
2023/03/02 08:20:29;;;;;;;10.85;5.97;;;;;;;2.61;54.11;100541.28;5139591;27;20466;-76
2023/03/02 08:22:54;;;;;;;13.50;5.43;;;;;;;2.55;54.49;100542.88;5141159;27;20542;-76
2023/03/02 08:25:19;;;;;;;13.77;7.38;;;;;;;2.79;53.84;100539.97;5139511;27;20450;-76
2023/03/02 08:27:45;;;;;;;13.57;6.80;;;;;;;2.76;53.15;100540.38;5140794;27;20023;-76
2023/03/02 08:30:11;;;;;;;17.63;7.72;;;;;;;2.86;53.32;100535.50;5139801;27;20031;-76
2023/03/02 08:32:36;;;;;;;13.85;7.28;;;;;;;2.99;53.11;100536.63;5138888;27;20054;-76
2023/03/02 08:35:02;;;;;;;11.73;6.15;;;;;;;3.03;52.82;100529.84;5139090;27;20095;-78
2023/03/02 08:37:28;;;;;;;15.50;7.93;;;;;;;2.93;53.00;100543.63;5140250;27;20375;-77
2023/03/02 08:39:53;;;;;;;17.10;6.60;;;;;;;2.77;52.73;100537.47;5141862;27;20594;-77
2023/03/02 08:42:18;;;;;;;15.20;7.43;;;;;;;2.95;52.75;100532.66;5143313;27;20030;-77
2023/03/02 08:44:43;;;;;;;18.05;7.20;;;;;;;3.19;51.75;100525.16;5142422;27;20255;-77
2023/03/02 08:47:09;;;;;;;10.98;5.70;;;;;;;3.22;51.55;100531.00;5139974;27;20126;-77
2023/03/02 08:49:36;;;;;;;12.93;6.88;;;;;;;3.20;51.55;100533.03;5140088;27;20030;-78
2023/03/02 08:52:02;;;;;;;10.85;6.22;;;;;;;3.18;51.51;100526.19;5140435;27;20352;-78
2023/03/02 08:54:28;;;;;;;13.95;6.88;;;;;;;3.18;51.45;100524.31;5140562;27;20109;-76
2023/03/02 08:56:53;;;;;;;13.02;6.80;;;;;;;3.25;51.03;100516.28;5141633;27;20127;-77
2023/03/02 08:59:20;;;;;;;11.48;5.53;;;;;;;3.20;51.93;100524.13;5141917;27;20365;-77
2023/03/02 09:01:46;;;;;;;12.10;6.72;;;;;;;3.25;51.49;100525.19;5142729;27;20019;-77
2023/03/02 09:04:11;;;;;;;16.95;6.63;;;;;;;3.36;50.96;100523.81;5142140;27;20034;-77
2023/03/02 09:06:39;;;;;;;12.00;5.50;;;;;;;3.56;51.60;100520.41;5141287;27;20050;-77
2023/03/02 09:09:05;;;;;;;13.85;7.25;;;;;;;3.54;51.25;100514.38;5141517;27;20038;-77
2023/03/02 09:11:31;;;;;;;14.23;6.10;;;;;;;3.69;51.02;100521.50;5141768;27;20034;-76
2023/03/02 09:13:56;;;;;;;13.55;7.00;;;;;;;3.70;50.96;100523.19;5142515;27;20026;-77
2023/03/02 09:16:25;;;;;;;11.40;6.70;;;;;;;3.87;50.53;100517.41;5141637;27;20027;-77
2023/03/02 09:18:51;;;;;;;13.90;6.85;;;;;;;3.99;50.80;100515.00;5140746;27;20023;-77
2023/03/02 09:21:16;;;;;;;11.57;5.97;;;;;;;3.83;50.98;100512.44;5142581;27;20031;-77
2023/03/02 09:23:42;;;;;;;12.90;5.97;;;;;;;3.94;50.48;100507.50;5142073;27;20112;-77
2023/03/02 09:26:07;;;;;;;10.87;6.37;;;;;;;4.00;49.77;100508.56;5141971;27;20469;-77
2023/03/02 09:28:34;;;;;;;11.35;5.63;;;;;;;3.84;49.73;100505.19;5141182;27;20248;-77
2023/03/02 09:31:02;;;;;;;15.50;7.03;;;;;;;3.93;50.15;100503.97;5141342;27;20029;-77
2023/03/02 09:33:29;;;;;;;14.88;5.65;;;;;;;3.87;50.33;100509.31;5141554;27;20114;-77
2023/03/02 09:35:54;;;;;;;13.57;5.63;;;;;;;4.05;50.10;100504.22;5140784;27;20031;-77
2023/03/02 09:38:19;;;;;;;12.65;5.93;;;;;;;4.19;49.46;100496.16;5140123;27;20031;-77
2023/03/02 09:41:17;;;;;;;9.48;5.25;;;;;;;4.22;49.52;100503.84;5141071;27;20102;-76
2023/03/02 09:44:22;;;;;;;11.70;5.63;;;;;;;4.36;48.24;100504.69;5141091;27;20030;-76
2023/03/02 09:47:03;;;;;;;11.80;6.00;;;;;;;4.31;48.07;100502.59;5141115;27;20041;-77
2023/03/02 09:49:38;;;;;;;14.88;6.93;;;;;;;4.54;48.98;100511.38;5140455;27;20031;-76
2023/03/02 09:52:20;;;;;;;11.35;6.28;;;;;;;4.50;48.94;100512.81;5141436;27;20041;-76
2023/03/02 09:54:46;;;;;;;11.82;5.68;;;;;;;4.66;48.54;100509.72;5141888;27;20054;-77
2023/03/02 09:57:24;;;;;;;14.98;6.93;;;;;;;4.75;48.16;100499.53;5140937;27;20119;-77
2023/03/02 10:00:02;;;;;;;13.70;6.50;;;;;;;4.78;46.88;100504.53;5140927;27;20519;-77
2023/03/02 10:02:42;;;;;;;15.60;6.32;;;;;;;4.87;47.59;100502.44;5140540;27;20035;-76
2023/03/02 10:05:44;;;;;;;11.05;6.22;;;;;;;4.79;48.36;100492.69;5140839;27;20471;-76
2023/03/02 10:08:25;;;;;;;10.43;6.15;;;;;;;5.06;48.17;100491.84;5098214;27;20081;-76
2023/03/02 10:11:08;;;;;;;16.67;6.38;;;;;;;4.98;47.61;100487.47;5141037;27;20026;-76
2023/03/02 10:13:42;;;;;;;9.20;5.13;;;;;;;5.16;47.06;100498.69;5141251;27;20034;-77
2023/03/02 10:16:18;;;;;;;14.25;5.57;;;;;;;5.30;47.24;100496.78;5138316;27;20023;-77
2023/03/02 10:19:08;;;;;;;13.15;7.32;;;;;;;5.09;46.98;100506.78;5139556;27;20034;-76
2023/03/02 10:21:46;;;;;;;13.65;6.05;;;;;;;5.29;47.30;100505.94;5141018;27;20255;-76
2023/03/02 10:24:30;;;;;;;11.35;5.97;;;;;;;5.30;46.96;100492.22;5139851;27;20058;-77
2023/03/02 10:27:00;;;;;;;12.63;6.67;;;;;;;5.46;46.50;100490.91;5140355;27;20026;-76
2023/03/02 10:29:46;;;;;;;13.15;6.28;;;;;;;5.63;46.38;100489.63;5139769;27;20258;-77
2023/03/02 10:32:20;;;;;;;13.82;6.18;;;;;;;5.66;46.17;100500.84;5138415;27;20377;-76
2023/03/02 10:34:47;;;;;;;9.45;5.35;;;;;;;5.71;45.05;100489.38;5141212;27;20057;-77
2023/03/02 10:37:16;;;;;;;9.57;5.32;;;;;;;5.73;45.86;100496.22;5140665;27;20033;-77
2023/03/02 10:39:41;;;;;;;10.55;6.28;;;;;;;5.70;45.29;100485.84;5138953;27;20034;-77
2023/03/02 10:42:15;;;;;;;15.18;6.28;;;;;;;5.90;45.54;100489.50;5139089;27;20424;-77
2023/03/02 10:44:46;;;;;;;10.65;6.22;;;;;;;6.08;45.83;100491.53;5138516;27;20037;-77
2023/03/02 10:47:26;;;;;;;8.63;5.30;;;;;;;5.86;44.07;100489.09;5139577;27;20114;-77
2023/03/02 10:49:53;;;;;;;12.10;5.22;;;;;;;5.97;44.64;100487.59;5138897;27;20031;-77
2023/03/02 10:52:24;;;;;;;8.85;5.68;;;;;;;6.07;44.91;100479.88;5140320;27;20039;-77
2023/03/02 10:55:01;;;;;;;10.38;5.68;;;;;;;6.17;45.45;100481.25;5137199;27;20037;-77
2023/03/02 10:57:38;;;;;;;13.63;5.90;;;;;;;6.40;45.25;100491.53;5138959;27;20043;-77
2023/03/02 11:00:16;;;;;;;18.38;5.78;;;;;;;6.50;44.91;100484.78;5139087;27;20039;-77
2023/03/02 11:02:59;;;;;;;15.63;7.28;;;;;;;6.61;45.19;100485.97;5139674;27;20483;-77
2023/03/02 11:05:38;;;;;;;10.88;4.97;;;;;;;6.58;44.43;100478.28;5139519;27;20132;-77
2023/03/02 11:08:05;;;;;;;10.93;5.43;;;;;;;6.68;45.09;100486.75;5138966;27;20113;-76
2023/03/02 11:10:36;;;;;;;16.90;6.53;;;;;;;6.77;45.43;100479.97;5138450;27;20019;-77
2023/03/02 11:13:15;;;;;;;10.02;5.85;;;;;;;6.86;44.75;100477.00;5139630;27;20203;-77
2023/03/02 11:15:47;;;;;;;10.93;6.15;;;;;;;6.87;43.84;100482.22;5140064;27;20029;-77
2023/03/02 11:18:23;;;;;;;10.23;5.75;;;;;;;6.98;43.89;100477.09;5137569;27;20018;-76
2023/03/02 11:20:52;;;;;;;7.80;4.63;;;;;;;7.06;43.87;100479.53;5138884;27;20071;-76
2023/03/02 11:23:38;;;;;;;13.63;5.90;;;;;;;7.16;43.53;100479.00;5138589;27;20467;-76
2023/03/02 11:26:25;;;;;;;10.65;4.43;;;;;;;7.28;43.96;100475.56;5139999;27;20471;-77
2023/03/02 11:29:02;;;;;;;16.70;6.70;;;;;;;7.31;42.31;100475.94;5138660;27;20026;-77
2023/03/02 11:31:27;;;;;;;10.05;5.78;;;;;;;7.33;42.72;100468.41;5138975;27;20042;-77